Time;durP1;ratioP1;P1;durP2;ratioP2;P2;SDS_P1;SDS_P2;PMS_P1;PMS_P2;Temp;Humidity;BMP_temperature;BMP_pressure;BME280_temperature;BME280_humidity;BME280_pressure;Samples;Min_cycle;Max_cycle;Signal;HPM_P1;HPM_P2
2023/07/30 00:01:51;;;;;;;5.30;4.80;;;18.20;99.90;;;;;;5023520;28;20219;-68
2023/07/30 00:04:16;;;;;;;5.03;4.53;;;18.20;99.90;;;;;;5020408;28;20202;-67
2023/07/30 00:06:42;;;;;;;6.57;4.27;;;18.20;99.90;;;;;;5019152;28;20273;-65
2023/07/30 00:09:07;;;;;;;4.77;4.37;;;18.20;99.90;;;;;;5015424;28;20851;-68
2023/07/30 00:11:33;;;;;;;4.70;4.23;;;18.20;99.90;;;;;;5020593;28;20202;-69
2023/07/30 00:13:58;;;;;;;5.20;4.70;;;18.30;99.90;;;;;;5013066;28;20519;-68
2023/07/30 00:16:26;;;;;;;5.17;4.70;;;18.30;99.90;;;;;;5015596;28;20192;-65
2023/07/30 00:18:52;;;;;;;4.70;4.30;;;18.20;99.90;;;;;;5009987;28;20220;-62
2023/07/30 00:21:17;;;;;;;4.00;3.70;;;18.20;99.90;;;;;;5012205;28;20836;-65
2023/07/30 00:23:42;;;;;;;4.83;3.90;;;17.90;99.90;;;;;;5011436;28;20203;-63
2023/07/30 00:26:08;;;;;;;5.47;4.43;;;17.80;99.90;;;;;;5014820;28;20231;-63
2023/07/30 00:28:33;;;;;;;4.87;4.47;;;17.90;99.90;;;;;;5014810;28;20188;-64
2023/07/30 00:30:59;;;;;;;5.30;4.10;;;17.80;99.90;;;;;;5018485;28;20196;-64
2023/07/30 00:33:24;;;;;;;3.90;3.60;;;17.80;99.90;;;;;;5003966;28;20247;-64
2023/07/30 00:35:53;;;;;;;3.93;3.73;;;17.80;99.90;;;;;;5014954;28;20302;-63
2023/07/30 00:38:19;;;;;;;9.67;3.70;;;17.70;99.90;;;;;;5002785;28;20338;-64
2023/07/30 00:40:44;;;;;;;4.40;3.93;;;17.60;99.90;;;;;;5016015;28;20212;-69
2023/07/30 00:43:10;;;;;;;3.77;3.47;;;17.60;99.90;;;;;;5014296;28;20219;-69
2023/07/30 00:45:38;;;;;;;5.93;3.77;;;17.70;99.90;;;;;;5008058;28;20208;-69
2023/07/30 00:48:04;;;;;;;4.20;3.80;;;17.70;99.90;;;;;;5011151;28;20192;-68
2023/07/30 00:50:30;;;;;;;4.23;3.90;;;17.80;99.90;;;;;;5012765;28;20205;-69
2023/07/30 00:52:56;;;;;;;4.53;4.13;;;17.80;99.90;;;;;;5002170;28;20204;-69
2023/07/30 00:55:21;;;;;;;4.47;3.40;;;17.80;99.90;;;;;;5013418;28;20180;-69
2023/07/30 00:57:48;;;;;;;3.97;3.70;;;17.80;99.90;;;;;;5009778;28;20192;-69
2023/07/30 01:00:14;;;;;;;4.47;3.20;;;17.70;99.90;;;;;;5012094;28;20315;-69
2023/07/30 01:02:39;;;;;;;4.27;3.30;;;17.70;99.90;;;;;;5013151;28;20549;-68
2023/07/30 01:05:05;;;;;;;5.90;4.20;;;17.80;99.90;;;;;;5016029;28;20187;-67
2023/07/30 01:07:31;;;;;;;10.00;3.70;;;17.80;99.90;;;;;;5003813;28;20188;-67
2023/07/30 01:09:57;;;;;;;3.60;3.37;;;17.80;99.90;;;;;;5011458;28;20303;-67
2023/07/30 01:12:24;;;;;;;4.13;3.83;;;17.80;99.90;;;;;;5006539;28;20544;-68
2023/07/30 01:14:50;;;;;;;3.90;3.60;;;17.80;99.90;;;;;;5015568;28;20192;-67
2023/07/30 01:17:16;;;;;;;3.93;3.43;;;17.80;99.90;;;;;;5008228;28;20200;-68
2023/07/30 01:19:41;;;;;;;4.50;4.20;;;17.80;99.90;;;;;;5015511;28;20325;-65
2023/07/30 01:22:07;;;;;;;4.13;3.33;;;17.90;99.90;;;;;;5015193;28;20208;-68
2023/07/30 01:24:32;;;;;;;4.07;3.73;;;17.80;99.90;;;;;;5019165;28;20191;-69
2023/07/30 01:27:05;;;;;;;4.23;3.83;;;17.80;99.90;;;;;;5015688;28;20192;-69
2023/07/30 01:29:48;;;;;;;4.13;3.83;;;17.70;99.90;;;;;;5006245;28;20184;-69
2023/07/30 01:32:14;;;;;;;5.10;3.77;;;17.60;99.90;;;;;;5020671;28;20267;-68
2023/07/30 01:34:41;;;;;;;4.03;3.73;;;17.60;99.90;;;;;;5014667;28;20211;-68
2023/07/30 01:37:09;;;;;;;4.73;3.43;;;17.60;99.90;;;;;;5017206;28;20262;-67
2023/07/30 01:39:38;;;;;;;7.17;3.47;;;17.60;99.90;;;;;;5017984;28;20180;-67
2023/07/30 01:42:04;;;;;;;3.53;3.33;;;17.60;99.90;;;;;;5014324;28;20215;-63
2023/07/30 01:44:29;;;;;;;3.43;3.23;;;17.60;99.90;;;;;;5013895;28;20538;-64
2023/07/30 01:46:54;;;;;;;4.47;3.43;;;17.60;99.90;;;;;;5013839;28;20298;-64
2023/07/30 01:49:20;;;;;;;5.27;3.83;;;17.70;99.90;;;;;;5009580;28;20227;-65
2023/07/30 01:51:46;;;;;;;5.77;3.90;;;17.70;99.90;;;;;;5020173;28;20206;-69
2023/07/30 01:54:11;;;;;;;4.37;4.03;;;17.60;99.90;;;;;;5017802;28;20207;-69
2023/07/30 01:56:37;;;;;;;5.17;4.00;;;17.60;99.90;;;;;;5010665;28;20188;-69
2023/07/30 01:59:02;;;;;;;4.13;3.80;;;17.60;99.90;;;;;;5007361;28;20199;-69
2023/07/30 02:01:28;;;;;;;5.77;4.23;;;17.60;99.90;;;;;;5003175;28;20250;-69
2023/07/30 02:03:53;;;;;;;5.20;4.10;;;17.60;99.90;;;;;;5011580;28;20288;-68
2023/07/30 02:06:19;;;;;;;4.93;4.43;;;17.50;99.90;;;;;;5015218;28;20195;-69
2023/07/30 02:08:44;;;;;;;4.83;4.23;;;17.50;99.90;;;;;;5015615;28;20203;-69
2023/07/30 02:11:09;;;;;;;4.27;3.83;;;17.50;99.90;;;;;;5014761;28;20199;-68
2023/07/30 02:13:35;;;;;;;5.67;4.20;;;17.50;99.90;;;;;;5003837;28;20239;-69
2023/07/30 02:16:00;;;;;;;4.20;3.80;;;17.50;99.90;;;;;;5020234;28;20206;-73
2023/07/30 02:18:26;;;;;;;5.90;4.77;;;17.50;99.90;;;;;;5011845;28;20286;-72
2023/07/30 02:20:51;;;;;;;5.27;4.77;;;17.50;99.90;;;;;;5011349;28;20744;-73
2023/07/30 02:23:17;;;;;;;4.30;3.90;;;17.50;99.90;;;;;;5006299;28;20311;-73
2023/07/30 02:25:43;;;;;;;5.13;4.23;;;17.50;99.90;;;;;;5010842;28;20194;-73
2023/07/30 02:28:09;;;;;;;4.50;4.13;;;17.40;99.90;;;;;;5010702;28;20274;-73
2023/07/30 02:30:35;;;;;;;5.93;4.93;;;17.40;99.90;;;;;;5011621;28;20334;-73
2023/07/30 02:33:01;;;;;;;4.47;4.07;;;17.40;99.90;;;;;;5020846;28;20732;-72
2023/07/30 02:35:26;;;;;;;5.23;4.73;;;17.40;99.90;;;;;;5020444;28;20196;-71
2023/07/30 02:37:52;;;;;;;4.10;3.80;;;17.40;99.90;;;;;;5013400;28;20740;-72
2023/07/30 02:40:17;;;;;;;4.67;4.27;;;17.40;99.90;;;;;;5014092;28;20215;-72
2023/07/30 02:42:42;;;;;;;5.33;3.93;;;17.40;99.90;;;;;;5017539;28;20669;-73
2023/07/30 02:45:08;;;;;;;4.03;3.47;;;17.40;99.90;;;;;;5009183;28;20215;-73
2023/07/30 02:47:34;;;;;;;7.63;3.80;;;17.40;99.90;;;;;;5016877;28;20756;-73
2023/07/30 02:49:59;;;;;;;4.47;4.17;;;17.40;99.90;;;;;;5011688;28;20230;-72
2023/07/30 02:52:24;;;;;;;3.63;3.33;;;17.40;99.90;;;;;;5014998;28;20662;-73
2023/07/30 02:54:50;;;;;;;3.93;3.63;;;17.40;99.90;;;;;;5018233;28;20202;-73
2023/07/30 02:57:15;;;;;;;4.47;4.07;;;17.40;99.90;;;;;;5005521;28;20226;-72
2023/07/30 02:59:41;;;;;;;4.30;3.90;;;17.40;99.90;;;;;;5006481;28;20648;-72
2023/07/30 03:02:07;;;;;;;4.97;4.67;;;17.40;99.90;;;;;;5011381;28;20223;-72
2023/07/30 03:04:32;;;;;;;4.90;4.50;;;17.40;99.90;;;;;;5011945;28;20183;-67
2023/07/30 03:06:58;;;;;;;4.67;4.27;;;17.40;99.90;;;;;;5008776;28;20193;-64
2023/07/30 03:09:24;;;;;;;5.17;4.00;;;17.30;99.90;;;;;;5011179;28;20708;-66
2023/07/30 03:11:50;;;;;;;4.70;4.23;;;17.30;99.90;;;;;;5001718;28;20558;-66
2023/07/30 03:14:16;;;;;;;4.27;3.93;;;17.30;99.90;;;;;;5008578;28;20291;-66
2023/07/30 03:16:41;;;;;;;4.43;4.13;;;17.30;99.90;;;;;;5020156;28;20286;-68
2023/07/30 03:19:07;;;;;;;8.77;6.23;;;17.30;99.90;;;;;;5018202;28;20208;-69
2023/07/30 03:21:32;;;;;;;7.87;5.40;;;17.20;99.90;;;;;;5015403;28;20211;-71
2023/07/30 03:23:58;;;;;;;5.00;4.60;;;17.20;99.90;;;;;;5012307;28;20204;-65
2023/07/30 03:26:23;;;;;;;4.87;4.37;;;17.20;99.90;;;;;;5019924;28;20249;-62
2023/07/30 03:28:49;;;;;;;7.83;4.90;;;17.20;99.90;;;;;;5014964;28;20989;-69
2023/07/30 03:31:14;;;;;;;6.50;4.53;;;17.20;99.90;;;;;;5019867;28;20210;-68
2023/07/30 03:33:43;;;;;;;4.83;4.43;;;17.20;99.90;;;;;;5016271;28;20287;-66
2023/07/30 03:36:13;;;;;;;5.97;4.80;;;17.30;99.90;;;;;;5017676;28;20192;-66
2023/07/30 03:38:38;;;;;;;6.93;4.40;;;17.30;99.90;;;;;;5014956;28;20824;-66
2023/07/30 03:41:06;;;;;;;4.40;4.10;;;17.30;99.90;;;;;;5015311;28;20720;-67
2023/07/30 03:43:31;;;;;;;4.87;4.40;;;17.30;99.90;;;;;;5009199;28;20192;-67
2023/07/30 03:45:57;;;;;;;4.90;4.50;;;17.30;99.90;;;;;;5012590;28;20194;-66
2023/07/30 03:48:22;;;;;;;5.40;5.00;;;17.30;99.90;;;;;;5015490;28;20240;-66
2023/07/30 03:50:48;;;;;;;4.47;4.17;;;17.30;99.90;;;;;;5009983;28;20199;-66
2023/07/30 03:53:13;;;;;;;5.43;4.80;;;17.30;99.90;;;;;;5008779;28;20710;-66
2023/07/30 03:55:40;;;;;;;5.07;4.67;;;17.30;99.90;;;;;;5023278;28;20187;-66
2023/07/30 03:58:05;;;;;;;4.87;4.47;;;17.20;99.90;;;;;;5013281;28;20243;-67
2023/07/30 04:00:30;;;;;;;5.23;4.73;;;17.20;99.90;;;;;;5011410;28;20315;-66
2023/07/30 04:02:56;;;;;;;6.13;5.53;;;17.20;99.90;;;;;;5011035;28;20948;-66
2023/07/30 04:05:21;;;;;;;5.17;4.77;;;17.20;99.90;;;;;;5016427;28;20291;-66
2023/07/30 04:07:47;;;;;;;5.23;4.73;;;17.20;99.90;;;;;;5016917;28;20199;-66
2023/07/30 04:10:12;;;;;;;5.83;5.23;;;17.30;99.90;;;;;;5013981;28;20207;-67
2023/07/30 04:12:38;;;;;;;5.27;4.83;;;17.30;99.90;;;;;;5016478;28;20200;-67
2023/07/30 04:15:04;;;;;;;4.83;4.43;;;17.30;99.90;;;;;;5015509;28;20204;-67
2023/07/30 04:17:29;;;;;;;5.33;4.93;;;17.30;99.90;;;;;;5007290;28;20216;-66
2023/07/30 04:19:55;;;;;;;5.90;4.80;;;17.40;99.90;;;;;;5006579;28;20190;-66
2023/07/30 04:22:20;;;;;;;5.17;4.87;;;17.30;99.90;;;;;;5016313;28;20227;-66
2023/07/30 04:24:46;;;;;;;8.90;4.70;;;17.30;99.90;;;;;;5022983;28;20233;-65
2023/07/30 04:27:11;;;;;;;5.43;5.03;;;17.30;99.90;;;;;;5018716;28;20207;-66
2023/07/30 04:29:37;;;;;;;5.17;4.67;;;17.20;99.90;;;;;;5017616;28;20559;-66
2023/07/30 04:32:03;;;;;;;5.37;4.97;;;17.10;99.90;;;;;;5015157;28;20574;-67
2023/07/30 04:34:28;;;;;;;5.40;4.90;;;17.20;99.90;;;;;;5009088;28;20264;-67
2023/07/30 04:36:53;;;;;;;7.03;5.10;;;17.00;99.90;;;;;;5018015;28;20563;-67
2023/07/30 04:39:19;;;;;;;5.23;4.83;;;17.00;99.90;;;;;;5020431;28;20226;-67
2023/07/30 04:41:44;;;;;;;5.27;4.90;;;17.00;99.90;;;;;;5015550;28;20737;-66
2023/07/30 04:44:10;;;;;;;5.83;5.33;;;17.10;99.90;;;;;;5012876;28;20188;-66
2023/07/30 04:46:35;;;;;;;6.27;4.57;;;17.10;99.90;;;;;;5017702;28;20211;-67
2023/07/30 04:49:04;;;;;;;5.67;5.00;;;17.10;99.90;;;;;;5011271;28;20321;-64
2023/07/30 04:51:30;;;;;;;5.03;4.67;;;17.20;99.90;;;;;;5010098;28;20183;-64
2023/07/30 04:53:55;;;;;;;5.60;5.10;;;17.20;99.90;;;;;;5013747;28;20564;-66
2023/07/30 04:56:21;;;;;;;5.47;5.07;;;17.30;99.90;;;;;;5012852;28;20287;-71
2023/07/30 04:58:46;;;;;;;5.87;5.27;;;17.40;99.90;;;;;;5012855;28;20207;-68
2023/07/30 05:01:12;;;;;;;5.23;4.83;;;17.40;99.90;;;;;;5017871;28;20965;-70
2023/07/30 05:03:37;;;;;;;5.20;4.80;;;17.30;99.90;;;;;;5019721;28;20208;-67
2023/07/30 05:06:03;;;;;;;4.73;4.33;;;17.30;99.90;;;;;;5016809;28;20192;-68
2023/07/30 05:08:28;;;;;;;4.80;4.50;;;17.30;99.90;;;;;;5014444;28;20627;-68
2023/07/30 05:10:54;;;;;;;5.20;4.80;;;17.40;99.90;;;;;;5012218;28;20690;-67
2023/07/30 05:13:19;;;;;;;6.90;4.47;;;17.50;99.90;;;;;;5014741;28;20204;-66
2023/07/30 05:15:45;;;;;;;5.50;5.10;;;17.40;99.90;;;;;;5010833;28;20191;-66
2023/07/30 05:18:10;;;;;;;4.70;4.40;;;17.40;99.90;;;;;;5017608;28;20374;-67
2023/07/30 05:20:35;;;;;;;4.57;4.17;;;17.50;99.90;;;;;;5008916;28;20311;-67
2023/07/30 05:23:02;;;;;;;4.20;3.90;;;17.70;99.90;;;;;;5008199;28;20562;-66
2023/07/30 05:25:27;;;;;;;4.53;4.03;;;17.80;99.90;;;;;;5017893;28;20187;-68
2023/07/30 05:27:53;;;;;;;5.17;3.67;;;17.90;99.90;;;;;;5006628;28;20202;-67
2023/07/30 05:30:18;;;;;;;3.93;3.63;;;18.00;99.90;;;;;;5010074;28;20200;-65
2023/07/30 05:32:44;;;;;;;3.37;3.17;;;18.00;99.90;;;;;;5017708;28;20662;-65
2023/07/30 05:35:09;;;;;;;3.33;3.13;;;18.20;99.90;;;;;;5010945;28;20710;-65
2023/07/30 05:37:35;;;;;;;3.80;3.50;;;18.20;99.90;;;;;;5010752;28;20607;-65
2023/07/30 05:40:00;;;;;;;3.90;3.60;;;18.20;99.90;;;;;;5017395;28;20196;-65
2023/07/30 05:42:26;;;;;;;3.67;3.47;;;18.20;99.90;;;;;;5009991;28;20270;-65
2023/07/30 05:44:51;;;;;;;4.73;3.50;;;18.10;99.90;;;;;;5015574;28;20183;-66
2023/07/30 05:47:17;;;;;;;3.60;3.40;;;18.30;99.90;;;;;;5010557;28;20196;-65
2023/07/30 05:49:42;;;;;;;3.80;3.40;;;18.30;99.90;;;;;;5015400;28;20311;-65
2023/07/30 05:52:08;;;;;;;3.87;3.57;;;18.30;99.90;;;;;;5012077;28;20629;-63
2023/07/30 05:54:33;;;;;;;4.97;3.50;;;18.30;99.90;;;;;;5013718;28;20188;-72
2023/07/30 05:56:59;;;;;;;7.23;4.00;;;18.30;99.90;;;;;;5014756;28;20737;-72
2023/07/30 05:59:24;;;;;;;4.00;3.70;;;18.40;99.90;;;;;;5009723;28;20199;-72
2023/07/30 06:01:50;;;;;;;4.37;3.33;;;18.30;99.90;;;;;;5009552;28;20219;-63
2023/07/30 06:04:15;;;;;;;3.50;3.30;;;18.30;99.90;;;;;;5018920;28;20191;-68
2023/07/30 06:06:40;;;;;;;3.63;3.43;;;18.40;99.90;;;;;;5006124;28;20624;-61
2023/07/30 06:09:06;;;;;;;3.67;3.47;;;18.50;99.90;;;;;;5018704;28;20228;-61
2023/07/30 06:11:31;;;;;;;3.80;3.47;;;18.60;99.90;;;;;;5006376;28;20204;-61
2023/07/30 06:13:57;;;;;;;3.37;3.17;;;18.70;99.90;;;;;;5007789;28;20271;-61
2023/07/30 06:16:22;;;;;;;5.47;3.40;;;18.70;99.90;;;;;;5031839;23;20258;-71
2023/07/30 06:18:48;;;;;;;3.43;3.17;;;18.70;99.90;;;;;;5036980;23;20293;-64
2023/07/30 06:21:13;;;;;;;3.83;3.13;;;18.80;99.90;;;;;;5020263;28;20307;-65
2023/07/30 06:23:39;;;;;;;2.90;2.70;;;18.80;99.90;;;;;;5022546;28;20731;-66
2023/07/30 06:26:04;;;;;;;4.53;3.10;;;19.00;99.90;;;;;;5018827;28;20200;-72
2023/07/30 06:28:30;;;;;;;3.10;2.90;;;18.90;99.90;;;;;;5018162;28;20947;-63
2023/07/30 06:30:55;;;;;;;3.67;3.37;;;19.00;99.90;;;;;;5018677;28;20226;-63
2023/07/30 06:33:21;;;;;;;2.60;2.50;;;19.00;99.90;;;;;;5020693;28;20211;-65
2023/07/30 06:35:46;;;;;;;4.30;2.77;;;19.00;99.90;;;;;;5022744;28;20207;-64
2023/07/30 06:38:12;;;;;;;3.70;2.80;;;19.10;99.90;;;;;;5019491;28;20211;-66
2023/07/30 06:40:37;;;;;;;3.87;2.83;;;19.10;99.90;;;;;;5022110;28;20211;-64
2023/07/30 06:43:03;;;;;;;3.67;2.60;;;19.40;99.90;;;;;;5020447;28;20213;-64
2023/07/30 06:45:28;;;;;;;2.77;2.57;;;19.40;99.90;;;;;;5018367;28;20192;-64
2023/07/30 06:47:53;;;;;;;4.20;2.77;;;19.30;99.90;;;;;;5020865;28;20673;-66
2023/07/30 06:50:19;;;;;;;2.50;2.30;;;19.30;99.90;;;;;;5021469;28;20311;-68
2023/07/30 06:52:44;;;;;;;3.20;2.90;;;19.40;99.90;;;;;;5017402;28;20265;-61
2023/07/30 06:55:10;;;;;;;3.63;3.20;;;19.30;99.90;;;;;;5022910;28;20183;-65
2023/07/30 06:57:36;;;;;;;3.00;2.80;;;19.40;99.90;;;;;;5020749;28;20218;-65
2023/07/30 07:00:03;;;;;;;2.67;2.47;;;19.30;99.90;;;;;;5021655;28;20179;-62
2023/07/30 07:02:29;;;;;;;3.00;2.80;;;19.40;99.90;;;;;;5022875;28;20215;-79
2023/07/30 07:04:54;;;;;;;3.50;3.20;;;19.30;99.90;;;;;;5027238;28;20178;-74
2023/07/30 07:07:20;;;;;;;5.37;3.67;;;19.20;99.90;;;;;;5023861;28;20215;-68
2023/07/30 07:09:46;;;;;;;3.47;2.90;;;19.30;99.90;;;;;;5025049;28;20201;-66
2023/07/30 07:12:11;;;;;;;3.60;3.10;;;19.40;99.90;;;;;;5023844;28;20195;-69
2023/07/30 07:14:37;;;;;;;6.00;3.60;;;19.40;99.90;;;;;;5024544;28;20196;-69
2023/07/30 07:17:02;;;;;;;4.40;3.53;;;19.30;99.90;;;;;;5018611;28;20658;-67
2023/07/30 07:19:28;;;;;;;4.03;3.63;;;19.30;99.90;;;;;;5025669;28;20253;-67
2023/07/30 07:21:53;;;;;;;4.10;3.10;;;19.40;99.90;;;;;;5024497;28;20291;-63
2023/07/30 07:24:19;;;;;;;3.60;3.30;;;19.70;99.90;;;;;;5020160;28;20273;-70
2023/07/30 07:26:44;;;;;;;4.03;3.33;;;19.60;99.90;;;;;;5023974;28;20196;-68
2023/07/30 07:29:10;;;;;;;3.90;3.03;;;19.60;99.90;;;;;;5020965;28;20196;-69
2023/07/30 07:31:35;;;;;;;3.40;3.13;;;19.60;99.90;;;;;;5020310;28;20187;-71
2023/07/30 07:34:01;;;;;;;3.37;3.17;;;19.60;99.90;;;;;;5023109;28;20265;-70
2023/07/30 07:36:26;;;;;;;4.50;3.60;;;19.60;99.90;;;;;;5010541;28;20253;-70
2023/07/30 07:38:52;;;;;;;4.07;3.77;;;19.70;99.90;;;;;;5022082;28;20586;-70
2023/07/30 07:41:18;;;;;;;3.47;3.20;;;19.80;99.90;;;;;;5025135;28;20575;-71
2023/07/30 07:43:44;;;;;;;4.00;3.60;;;19.80;99.90;;;;;;5016386;28;20723;-69
2023/07/30 07:46:13;;;;;;;6.97;4.83;;;20.00;99.90;;;;;;5025003;28;20200;-70
2023/07/30 07:48:40;;;;;;;3.80;3.50;;;20.20;99.90;;;;;;5023409;28;20250;-69
2023/07/30 07:51:06;;;;;;;4.13;3.33;;;20.30;99.90;;;;;;5024616;28;20674;-63
2023/07/30 07:53:31;;;;;;;3.90;3.60;;;20.30;99.90;;;;;;5020153;28;20266;-68
2023/07/30 07:55:57;;;;;;;3.50;3.23;;;20.40;99.90;;;;;;5025272;28;20184;-60
2023/07/30 07:58:22;;;;;;;4.60;3.53;;;20.50;99.90;;;;;;5023110;28;20278;-63
2023/07/30 08:00:48;;;;;;;3.37;2.93;;;20.80;99.90;;;;;;5022949;28;20214;-65
2023/07/30 08:03:13;;;;;;;4.27;3.97;;;20.80;99.90;;;;;;5020134;28;20242;-66
2023/07/30 08:05:39;;;;;;;3.60;3.30;;;20.70;99.90;;;;;;5021351;28;20190;-70
2023/07/30 08:08:04;;;;;;;3.00;2.80;;;20.70;99.90;;;;;;5019352;28;20612;-71
2023/07/30 08:10:29;;;;;;;4.50;3.40;;;20.60;99.90;;;;;;5024869;28;20219;-70
2023/07/30 08:12:55;;;;;;;4.53;3.77;;;20.50;99.90;;;;;;5021200;28;20199;-70
2023/07/30 08:15:21;;;;;;;3.67;3.47;;;20.50;99.90;;;;;;5022443;28;20196;-70
2023/07/30 08:17:46;;;;;;;3.67;3.43;;;20.70;99.90;;;;;;5017669;28;20238;-67
2023/07/30 08:20:12;;;;;;;4.77;3.80;;;20.50;99.90;;;;;;5024836;28;20193;-68
2023/07/30 08:22:37;;;;;;;5.57;3.63;;;20.50;99.90;;;;;;5019019;28;20234;-61
2023/07/30 08:25:03;;;;;;;3.87;3.40;;;20.50;99.90;;;;;;5022979;28;20214;-62
2023/07/30 08:27:29;;;;;;;4.10;3.40;;;20.40;99.90;;;;;;5018611;28;20199;-59
2023/07/30 08:29:54;;;;;;;4.33;2.90;;;20.40;99.90;;;;;;5023436;28;20824;-60
2023/07/30 08:32:20;;;;;;;3.23;2.93;;;20.50;99.90;;;;;;5014587;28;20209;-59
2023/07/30 08:34:45;;;;;;;5.67;3.07;;;20.50;99.90;;;;;;5022269;28;20181;-65
2023/07/30 08:37:11;;;;;;;4.40;2.80;;;20.60;99.90;;;;;;5016219;28;20966;-68
2023/07/30 08:39:36;;;;;;;3.80;3.07;;;20.70;99.90;;;;;;5020186;28;20173;-72
2023/07/30 08:42:02;;;;;;;3.77;2.97;;;20.60;99.90;;;;;;5019198;28;20207;-64
2023/07/30 08:44:28;;;;;;;4.50;2.70;;;20.60;99.90;;;;;;5016951;28;20197;-64
2023/07/30 08:46:54;;;;;;;2.43;2.23;;;20.60;99.90;;;;;;5022866;28;20209;-62
2023/07/30 08:49:20;;;;;;;2.23;2.13;;;20.60;99.90;;;;;;5020444;28;20278;-62
2023/07/30 08:51:48;;;;;;;2.97;2.70;;;20.80;99.90;;;;;;5020665;28;20217;-64
2023/07/30 08:54:15;;;;;;;2.40;2.20;;;20.80;99.90;;;;;;5020637;28;20241;-64
2023/07/30 08:56:41;;;;;;;3.07;2.87;;;20.90;99.90;;;;;;5023437;28;20273;-63
2023/07/30 08:59:08;;;;;;;4.40;2.73;;;21.10;99.90;;;;;;5017250;28;20210;-63
2023/07/30 09:01:38;;;;;;;4.83;2.97;;;21.20;99.90;;;;;;5023313;28;20729;-64
2023/07/30 09:04:05;;;;;;;4.70;3.07;;;21.30;99.90;;;;;;5017683;28;20599;-63
2023/07/30 09:06:30;;;;;;;5.90;2.60;;;21.30;99.90;;;;;;5022237;28;20188;-65
2023/07/30 09:08:56;;;;;;;5.67;2.80;;;21.30;99.90;;;;;;5020506;28;20219;-70
2023/07/30 09:11:25;;;;;;;5.00;3.17;;;21.20;99.90;;;;;;5019069;28;20366;-61
2023/07/30 09:13:54;;;;;;;2.70;2.50;;;21.10;99.90;;;;;;5019309;28;20204;-66
2023/07/30 09:16:24;;;;;;;3.63;2.83;;;21.20;99.90;;;;;;5019540;28;20193;-69
2023/07/30 09:18:50;;;;;;;3.70;3.10;;;21.20;99.90;;;;;;5018919;28;20347;-72
2023/07/30 09:21:15;;;;;;;2.57;2.37;;;21.30;99.90;;;;;;5021977;28;20233;-73
2023/07/30 09:23:42;;;;;;;5.27;2.80;;;21.10;99.90;;;;;;5018420;28;20215;-72
2023/07/30 09:26:08;;;;;;;2.97;2.57;;;21.20;99.90;;;;;;5019198;28;20194;-73
2023/07/30 09:28:34;;;;;;;4.00;2.67;;;21.20;99.90;;;;;;5017427;28;20338;-71
2023/07/30 09:31:04;;;;;;;4.03;2.63;;;21.10;99.90;;;;;;5019079;28;20275;-75
2023/07/30 09:33:31;;;;;;;6.93;2.90;;;21.10;99.90;;;;;;5019089;28;20221;-73
2023/07/30 09:35:57;;;;;;;4.30;2.77;;;21.10;99.90;;;;;;5021380;28;20185;-72
2023/07/30 09:38:23;;;;;;;4.70;2.10;;;21.10;99.90;;;;;;5018501;28;20219;-72
2023/07/30 09:40:49;;;;;;;4.23;2.53;;;21.00;99.90;;;;;;5020311;28;20728;-72
2023/07/30 09:43:15;;;;;;;3.33;2.47;;;21.00;99.90;;;;;;5018590;28;20321;-72
2023/07/30 09:45:46;;;;;;;3.07;2.70;;;21.00;99.90;;;;;;5018047;28;20214;-72
2023/07/30 09:48:12;;;;;;;2.97;2.50;;;20.90;99.90;;;;;;5011946;28;20202;-73
2023/07/30 09:50:37;;;;;;;2.67;2.33;;;20.90;99.90;;;;;;5023037;28;20201;-72
2023/07/30 09:53:04;;;;;;;2.70;2.40;;;21.00;99.90;;;;;;5021572;28;20253;-70
2023/07/30 09:55:30;;;;;;;2.57;2.37;;;21.10;99.90;;;;;;5019249;28;20311;-62
2023/07/30 09:57:55;;;;;;;2.60;2.40;;;21.40;99.90;;;;;;5020566;28;20846;-60
2023/07/30 10:00:21;;;;;;;3.17;2.70;;;21.60;99.90;;;;;;5022852;28;20251;-61
2023/07/30 10:02:48;;;;;;;2.80;2.60;;;21.60;99.90;;;;;;5020505;28;20217;-61
2023/07/30 10:05:19;;;;;;;2.33;2.13;;;21.70;99.90;;;;;;5021380;28;20193;-65
2023/07/30 10:07:57;;;;;;;4.63;3.00;;;22.00;99.90;;;;;;5020330;28;20292;-64
2023/07/30 10:10:25;;;;;;;2.33;2.13;;;22.10;99.90;;;;;;5021674;28;20189;-73
2023/07/30 10:12:51;;;;;;;1.80;1.70;;;22.20;99.90;;;;;;5019465;28;20199;-68
2023/07/30 10:15:23;;;;;;;3.03;2.83;;;22.40;99.90;;;;;;5020332;28;20186;-73
2023/07/30 10:17:50;;;;;;;4.47;2.60;;;22.40;99.90;;;;;;5016636;28;20234;-77
2023/07/30 10:20:28;;;;;;;3.47;2.20;;;22.40;99.90;;;;;;5021761;28;20197;-70
2023/07/30 10:22:56;;;;;;;2.10;2.00;;;22.40;99.90;;;;;;5018266;28;20242;-74
2023/07/30 10:25:26;;;;;;;2.40;2.20;;;22.60;99.90;;;;;;5019786;28;20689;-73
2023/07/30 10:27:52;;;;;;;2.80;1.93;;;22.50;99.90;;;;;;5015129;28;20742;-74
2023/07/30 10:30:19;;;;;;;5.30;2.87;;;22.60;99.90;;;;;;5020083;28;20234;-66
2023/07/30 10:33:01;;;;;;;1.97;1.87;;;22.60;99.90;;;;;;5019869;28;20602;-62
2023/07/30 10:35:38;;;;;;;3.73;2.73;;;22.70;99.90;;;;;;5021617;28;20221;-62
2023/07/30 10:38:20;;;;;;;2.33;2.00;;;22.70;99.90;;;;;;5020980;28;20257;-66
2023/07/30 10:41:05;;;;;;;3.03;2.27;;;22.60;99.90;;;;;;5025691;28;20201;-73
2023/07/30 10:43:34;;;;;;;3.07;2.10;;;22.70;99.90;;;;;;5022186;28;20320;-77
2023/07/30 10:45:59;;;;;;;3.20;2.60;;;22.70;99.90;;;;;;5034479;28;20219;-63
2023/07/30 10:48:32;;;;;;;4.10;2.57;;;22.60;99.90;;;;;;5025485;28;20869;-72
2023/07/30 10:50:59;;;;;;;4.27;2.47;;;22.70;99.90;;;;;;5027600;28;20803;-62
2023/07/30 10:53:24;;;;;;;3.27;2.40;;;22.70;99.90;;;;;;5026451;28;20205;-72
2023/07/30 10:55:52;;;;;;;3.07;2.57;;;22.70;99.90;;;;;;5028645;28;20208;-70
2023/07/30 10:58:18;;;;;;;2.77;2.53;;;22.90;99.90;;;;;;5026850;28;20198;-72
2023/07/30 11:00:43;;;;;;;3.30;2.40;;;22.80;99.90;;;;;;5026267;28;20518;-68
2023/07/30 11:03:09;;;;;;;2.77;1.83;;;22.70;99.90;;;;;;5021288;28;20201;-63
2023/07/30 11:05:37;;;;;;;2.97;2.70;;;22.70;99.90;;;;;;5025161;28;20206;-64
2023/07/30 11:08:03;;;;;;;5.00;2.23;;;23.10;99.90;;;;;;5026105;28;20208;-75
2023/07/30 11:10:28;;;;;;;3.00;2.20;;;23.30;99.90;;;;;;5026045;28;20203;-79
2023/07/30 11:12:54;;;;;;;2.83;1.80;;;23.60;99.90;;;;;;5025684;28;20203;-71
2023/07/30 11:15:19;;;;;;;4.57;2.07;;;23.60;99.90;;;;;;5027239;28;20536;-63
2023/07/30 11:17:46;;;;;;;4.63;2.70;;;23.40;99.90;;;;;;5021063;28;20229;-73
2023/07/30 11:20:26;;;;;;;2.40;2.20;;;23.60;99.50;;;;;;5025603;28;20554;-71
2023/07/30 11:22:53;;;;;;;2.30;1.83;;;23.80;99.40;;;;;;5057611;23;20990;-72
2023/07/30 11:25:19;;;;;;;7.30;2.43;;;24.00;98.10;;;;;;4995943;28;20707;-72
2023/07/30 11:27:46;;;;;;;4.80;2.33;;;24.20;99.90;;;;;;4995664;28;20224;-71
2023/07/30 11:30:11;;;;;;;2.90;2.03;;;23.90;99.90;;;;;;5002765;28;20208;-69
2023/07/30 11:32:37;;;;;;;2.43;1.63;;;24.20;96.90;;;;;;4987587;28;20196;-74
2023/07/30 11:35:06;;;;;;;2.37;2.17;;;24.60;94.20;;;;;;4996078;28;20243;-68
2023/07/30 11:37:32;;;;;;;4.03;2.27;;;24.70;94.30;;;;;;4993246;28;20284;-67
2023/07/30 11:39:57;;;;;;;4.35;2.30;;;24.70;95.00;;;;;;5005392;28;20196;-67
2023/07/30 11:42:23;;;;;;;2.93;2.07;;;24.50;96.80;;;;;;5007789;28;20212;-69
2023/07/30 11:44:51;;;;;;;13.85;2.60;;;24.30;97.40;;;;;;5006402;28;20191;-78
2023/07/30 11:47:22;;;;;;;4.33;2.00;;;24.00;96.80;;;;;;5008980;28;20195;-64
2023/07/30 11:49:58;;;;;;;2.50;2.00;;;23.90;96.30;;;;;;5004796;28;20202;-78
2023/07/30 11:52:23;;;;;;;3.80;2.33;;;23.90;96.20;;;;;;4986871;28;20238;-64
2023/07/30 11:55:02;;;;;;;2.20;1.65;;;24.20;94.70;;;;;;5003378;28;20626;-68
2023/07/30 11:57:35;;;;;;;2.95;2.03;;;24.60;95.30;;;;;;5005961;28;20260;-68
2023/07/30 12:00:01;;;;;;;2.28;2.00;;;25.30;92.00;;;;;;5003450;28;20199;-60
2023/07/30 12:02:27;;;;;;;5.63;2.10;;;25.50;92.20;;;;;;5006129;28;20211;-70
2023/07/30 12:04:52;;;;;;;3.30;2.10;;;25.00;93.10;;;;;;4985665;28;20192;-63
2023/07/30 12:07:25;;;;;;;2.45;2.17;;;25.30;92.30;;;;;;5005427;28;20255;-71
2023/07/30 12:09:50;;;;;;;3.00;2.00;;;25.60;91.80;;;;;;5003387;28;20200;-73
2023/07/30 12:12:16;;;;;;;2.85;2.33;;;25.30;93.70;;;;;;4998896;28;20202;-76
2023/07/30 12:14:48;;;;;;;3.40;1.85;;;24.40;94.30;;;;;;5002891;28;20250;-72
2023/07/30 12:17:13;;;;;;;4.73;2.37;;;24.10;94.70;;;;;;4981600;28;20177;-71
2023/07/30 12:19:40;;;;;;;4.53;2.70;;;24.00;93.80;;;;;;4989691;28;20197;-70
2023/07/30 12:22:06;;;;;;;2.42;2.20;;;23.90;93.80;;;;;;5031484;23;20210;-70
2023/07/30 12:24:31;;;;;;;3.20;2.30;;;24.30;92.00;;;;;;5042380;28;20660;-70
2023/07/30 12:26:57;;;;;;;7.15;2.53;;;24.70;91.60;;;;;;5042292;28;20305;-69
2023/07/30 12:29:22;;;;;;;3.08;2.20;;;25.20;90.60;;;;;;5042188;28;20755;-69
2023/07/30 12:31:48;;;;;;;4.83;3.00;;;25.20;90.90;;;;;;5042416;28;20604;-69
2023/07/30 12:34:15;;;;;;;3.50;2.33;;;24.80;93.70;;;;;;5045470;22;20215;-70
2023/07/30 12:36:40;;;;;;;3.63;2.07;;;24.40;93.50;;;;;;5041470;28;20221;-71
2023/07/30 12:39:07;;;;;;;5.17;3.17;;;24.90;92.70;;;;;;5036358;28;20207;-70
2023/07/30 12:41:32;;;;;;;3.17;2.03;;;25.30;92.00;;;;;;5034425;28;20256;-70
2023/07/30 12:43:58;;;;;;;3.35;2.22;;;25.40;95.40;;;;;;5035073;28;20725;-72